Shohomaru — JD3662 — position and weather

sailwx.info

Track history (hours):
 
Tides and Currents Weather Stations Pressure Air Temp Water Temp Dewpoint Dewpoint Depression Visibility Wind Speed Wind Dir Waves Ship Positions

Shohomaru

Last reported at 2018-Jul-23 06:00 UTC. Time now 2018-Jul-23 06:05 UTC.
Position N 34°40' E 135°14'.

Length 33 m; draft 3 m.

Type: Tug. MMSI: 431005375.

Date/timePositionNaut miles runAvg speedWind from/ knotsBaromVisibWave heightAir tempDewpointWater temp
2018-Jul-23 06:00N 34°40' E 135°14'1 2.5
2018-Jul-23 05:30N 34°41' E 135°14'0 0.2
2018-Jul-23 05:00N 34°41' E 135°14'1 2.6
2018-Jul-23 04:30N 34°41' E 135°12'0 0.0
2018-Jul-23 04:00N 34°41' E 135°12'0 0.0
2018-Jul-23 03:29N 34°41' E 135°12'3 6.2
2018-Jul-23 03:00N 34°42' E 135°16'1 1.7
2018-Jul-23 02:30N 34°42' E 135°15'2 3.0
2018-Jul-23 02:00N 34°40' E 135°15'1 1.6
2018-Jul-23 01:30N 34°41' E 135°14'2 3.1
2018-Jul-23 01:00N 34°41' E 135°12'0 0.0
2018-Jul-23 00:30N 34°41' E 135°12'0 0.0
2018-Jul-23 00:00N 34°41' E 135°12'0 0.0
2018-Jul-22 23:30N 34°41' E 135°12'0 0.0
2018-Jul-22 23:00N 34°41' E 135°12'0 0.0
2018-Jul-21 21:57N 34°41' E 135°12'1 1.2
2018-Jul-21 21:30N 34°41' E 135°13'2 4.7
2018-Jul-21 21:00N 34°39' E 135°15'0 0.5
2018-Jul-21 20:30N 34°39' E 135°15'0 0.0
2018-Jul-21 20:00N 34°39' E 135°15'0 0.0
2018-Jul-21 19:30N 34°39' E 135°15'0 0.0
2018-Jul-21 19:00N 34°39' E 135°15'0 0.0
2018-Jul-21 18:30N 34°39' E 135°15'0 0.0
2018-Jul-21 18:00N 34°39' E 135°15'0 0.0
2018-Jul-21 17:30N 34°39' E 135°15'1 2.0
2018-Jul-21 17:00N 34°40' E 135°14'0 0.2
2018-Jul-21 16:30N 34°40' E 135°14'1 1.4
2018-Jul-21 16:00N 34°40' E 135°13'0 0.4
2018-Jul-21 15:30N 34°40' E 135°13'0 0.0
2018-Jul-21 15:00N 34°40' E 135°13'0 0.0
2018-Jul-21 14:30N 34°40' E 135°13'0 0.0
2018-Jul-21 13:30N 34°40' E 135°13'0 0.0
2018-Jul-21 13:00N 34°40' E 135°13'0 0.0
2018-Jul-21 12:30N 34°40' E 135°13'0 0.0
2018-Jul-21 12:00N 34°40' E 135°13'0 0.0
2018-Jul-21 11:30N 34°40' E 135°13'0 0.0
2018-Jul-21 10:59N 34°40' E 135°13'1 1.2
2018-Jul-21 10:30N 34°40' E 135°14'2 4.4
2018-Jul-21 10:00N 34°42' E 135°16'1 2.0
2018-Jul-21 09:30N 34°42' E 135°14'2 4.3
2018-Jul-21 09:00N 34°41' E 135°12'0 0.0
2018-Jul-21 08:30N 34°41' E 135°12'0 0.0
2018-Jul-21 08:00N 34°41' E 135°12'0 0.0
2018-Jul-21 07:30N 34°41' E 135°12'0 0.0
2018-Jul-21 07:00N 34°41' E 135°12'0 0.0
2018-Jul-21 06:30N 34°41' E 135°12'0 0.0
2018-Jul-21 06:00N 34°41' E 135°12'0 0.2
2018-Jul-21 05:30N 34°41' E 135°12'0 0.0
2018-Jul-21 05:00N 34°41' E 135°12'0 0.0
2018-Jul-21 04:30N 34°41' E 135°12'1 1.9
2018-Jul-21 04:00N 34°40' E 135°11'0 0.9
2018-Jul-21 03:30N 34°41' E 135°11'0 0.1
2018-Jul-21 03:00N 34°41' E 135°11'1 1.8
2018-Jul-21 02:30N 34°41' E 135°12'0 0.0
2018-Jul-21 02:00N 34°41' E 135°12'0 0.0
2018-Jul-21 01:30N 34°41' E 135°12'0 0.0
2018-Jul-21 01:00N 34°41' E 135°12'0 0.0
2018-Jul-21 00:30N 34°41' E 135°12'0 0.0
2018-Jul-21 00:00N 34°41' E 135°12'0 0.3
2018-Jul-20 23:31N 34°41' E 135°12'4 7.6
2018-Jul-20 23:01N 34°41' E 135°17'0 0.2
2018-Jul-20 22:30N 34°41' E 135°17'1 2.6
2018-Jul-20 22:00N 34°40' E 135°18'3 5.4
2018-Jul-20 21:30N 34°41' E 135°15'2 4.0
2018-Jul-20 21:00N 34°41' E 135°12'0 0.0
2018-Jul-20 20:30N 34°41' E 135°12'0 0.0
2018-Jul-19 06:55N 34°41' E 135°12'0 0.0
2018-Jul-19 06:30N 34°41' E 135°12'0 0.0
2018-Jul-19 06:00N 34°41' E 135°12'0 0.0
2018-Jul-19 05:30N 34°41' E 135°12'0 0.0
2018-Jul-19 05:00N 34°41' E 135°12'0 0.0
2018-Jul-19 04:30N 34°41' E 135°12'0 0.0
2018-Jul-19 04:00N 34°41' E 135°12'0 0.0
2018-Jul-19 03:30N 34°41' E 135°12'0 0.0
2018-Jul-19 03:00N 34°41' E 135°12'0 0.0
2018-Jul-19 02:30N 34°41' E 135°12'0 0.0
2018-Jul-19 02:00N 34°41' E 135°12'0 0.0
2018-Jul-19 01:30N 34°41' E 135°12'0 0.0
2018-Jul-19 01:00N 34°41' E 135°12'0 0.0
2018-Jul-19 00:30N 34°41' E 135°12'2 3.2
2018-Jul-19 00:00N 34°41' E 135°14'1 2.9
2018-Jul-18 23:30N 34°41' E 135°16'1 1.3
2018-Jul-18 23:00N 34°40' E 135°15'1 1.2
2018-Jul-18 22:30N 34°40' E 135°15'1 1.5
2018-Jul-18 22:00N 34°40' E 135°14'2 3.6
2018-Jul-18 21:30N 34°41' E 135°12'0 0.0
2018-Jul-18 21:00N 34°41' E 135°12'2 0.2
2018-Jul-18 10:31N 34°41' E 135°15'1 1.7
2018-Jul-18 10:01N 34°40' E 135°15'2 3.1
2018-Jul-18 09:30N 34°40' E 135°13'0 0.0
2018-Jul-18 09:00N 34°40' E 135°13'0 0.0
2018-Jul-18 08:30N 34°40' E 135°13'0 0.0
2018-Jul-18 07:59N 34°40' E 135°13'0 0.0
2018-Jul-18 07:30N 34°40' E 135°13'1 2.9
2018-Jul-18 07:00N 34°41' E 135°15'0 0.3
2018-Jul-18 06:30N 34°41' E 135°15'2 3.9
2018-Jul-18 06:00N 34°41' E 135°12'0 0.0
2018-Jul-18 05:30N 34°41' E 135°12'0 0.0
2018-Jul-18 05:00N 34°41' E 135°12'0 0.0
2018-Jul-18 04:30N 34°41' E 135°12'0 0.1
2018-Jul-18 04:00N 34°41' E 135°12'0 0.1
2018-Jul-18 03:30N 34°41' E 135°12'0 0.1
2018-Jul-18 03:00N 34°41' E 135°12'0 0.0
2018-Jul-18 02:30N 34°41' E 135°12'0 0.1
2018-Jul-18 02:00N 34°41' E 135°12'0 0.0
2018-Jul-18 01:30N 34°41' E 135°12'1 2.3
2018-Jul-18 01:00N 34°40' E 135°11'0 0.1
2018-Jul-18 00:30N 34°40' E 135°11'0 0.0
2018-Jul-18 00:00N 34°40' E 135°11'0 0.1
2018-Jul-17 23:30N 34°40' E 135°11'0 0.3
2018-Jul-17 23:00N 34°40' E 135°11'1 1.8
2018-Jul-17 22:30N 34°41' E 135°12'0 0.0
2018-Jul-17 22:00N 34°41' E 135°12'0 0.0
2018-Jul-17 08:22N 34°41' E 135°12'2 6.7
2018-Jul-17 08:01N 34°41' E 135°15'0 0.1
2018-Jul-17 07:30N 34°41' E 135°15'0 0.9
2018-Jul-17 07:00N 34°41' E 135°15'1 1.3
2018-Jul-17 06:30N 34°41' E 135°15'0 0.4
2018-Jul-17 06:00N 34°40' E 135°15'2 3.0
2018-Jul-17 05:27N 34°41' E 135°17'0 0.0
2018-Jul-17 05:01N 34°41' E 135°17'0 0.0
2018-Jul-17 04:30N 34°41' E 135°17'0 0.0
2018-Jul-17 04:01N 34°41' E 135°17'0 0.0
2018-Jul-17 03:30N 34°41' E 135°17'0 0.0
2018-Jul-17 03:00N 34°41' E 135°17'0 0.0
2018-Jul-17 02:31N 34°41' E 135°17'0 0.0
2018-Jul-17 02:01N 34°41' E 135°17'0 0.0
2018-Jul-17 01:29N 34°41' E 135°17'0 0.0
2018-Jul-17 01:00N 34°41' E 135°17'0 0.0
2018-Jul-17 00:29N 34°41' E 135°17'1 0.8
2018-Jul-16 23:30N 34°40' E 135°16'1 2.9
2018-Jul-16 23:00N 34°39' E 135°15'1 2.4
2018-Jul-16 22:30N 34°39' E 135°16'1 1.5
2018-Jul-16 22:01N 34°39' E 135°15'3 5.6
2018-Jul-16 21:30N 34°41' E 135°12'0 0.0
2018-Jul-16 21:01N 34°41' E 135°12'0 0.0
2018-Jul-16 20:31N 34°41' E 135°12'  
2018-Jul-13 09:49N 34°41' E 135°12'1 2.2
2018-Jul-13 09:30N 34°41' E 135°13'611.9
2018-Jul-13 09:00N 34°39' E 135°20'4 7.9
2018-Jul-13 08:30N 34°38' E 135°24'0 0.6
2018-Jul-13 08:00N 34°38' E 135°25'0 0.1
2018-Jul-13 07:30N 34°38' E 135°25'1 2.2
2018-Jul-13 06:59N 34°39' E 135°25'0 0.3
2018-Jul-13 06:29N 34°39' E 135°25'2 4.2
2018-Jul-13 06:00N 34°38' E 135°23'  
Track history (hours):
 
Tides and Currents Weather Stations Pressure Air Temp Water Temp Dewpoint Dewpoint Depression Visibility Wind Speed Wind Dir Waves Ship Positions

Shohomaru

Last reported at 2018-Jul-23 06:00 UTC. Time now 2018-Jul-23 06:05 UTC.
Position N 34°40' E 135°14'.

Length 33 m; draft 3 m.

Type: Tug. MMSI: 431005375.

Date/timePositionNaut miles runAvg speedWind from/ knotsBaromVisibWave heightAir tempDewpointWater temp
2018-Jul-23 06:00N 34°40' E 135°14'1 2.5
2018-Jul-23 05:30N 34°41' E 135°14'0 0.2
2018-Jul-23 05:00N 34°41' E 135°14'1 2.6
2018-Jul-23 04:30N 34°41' E 135°12'0 0.0
2018-Jul-23 04:00N 34°41' E 135°12'0 0.0
2018-Jul-23 03:29N 34°41' E 135°12'3 6.2
2018-Jul-23 03:00N 34°42' E 135°16'1 1.7
2018-Jul-23 02:30N 34°42' E 135°15'2 3.0
2018-Jul-23 02:00N 34°40' E 135°15'1 1.6
2018-Jul-23 01:30N 34°41' E 135°14'2 3.1
2018-Jul-23 01:00N 34°41' E 135°12'0 0.0
2018-Jul-23 00:30N 34°41' E 135°12'0 0.0
2018-Jul-23 00:00N 34°41' E 135°12'0 0.0
2018-Jul-22 23:30N 34°41' E 135°12'0 0.0
2018-Jul-22 23:00N 34°41' E 135°12'0 0.0
2018-Jul-21 21:57N 34°41' E 135°12'1 1.2
2018-Jul-21 21:30N 34°41' E 135°13'2 4.7
2018-Jul-21 21:00N 34°39' E 135°15'0 0.5
2018-Jul-21 20:30N 34°39' E 135°15'0 0.0
2018-Jul-21 20:00N 34°39' E 135°15'0 0.0
2018-Jul-21 19:30N 34°39' E 135°15'0 0.0
2018-Jul-21 19:00N 34°39' E 135°15'0 0.0
2018-Jul-21 18:30N 34°39' E 135°15'0 0.0
2018-Jul-21 18:00N 34°39' E 135°15'0 0.0
2018-Jul-21 17:30N 34°39' E 135°15'1 2.0
2018-Jul-21 17:00N 34°40' E 135°14'0 0.2
2018-Jul-21 16:30N 34°40' E 135°14'1 1.4
2018-Jul-21 16:00N 34°40' E 135°13'0 0.4
2018-Jul-21 15:30N 34°40' E 135°13'0 0.0
2018-Jul-21 15:00N 34°40' E 135°13'0 0.0
2018-Jul-21 14:30N 34°40' E 135°13'0 0.0
2018-Jul-21 13:30N 34°40' E 135°13'0 0.0
2018-Jul-21 13:00N 34°40' E 135°13'0 0.0
2018-Jul-21 12:30N 34°40' E 135°13'0 0.0
2018-Jul-21 12:00N 34°40' E 135°13'0 0.0
2018-Jul-21 11:30N 34°40' E 135°13'0 0.0
2018-Jul-21 10:59N 34°40' E 135°13'1 1.2
2018-Jul-21 10:30N 34°40' E 135°14'2 4.4
2018-Jul-21 10:00N 34°42' E 135°16'1 2.0
2018-Jul-21 09:30N 34°42' E 135°14'2 4.3
2018-Jul-21 09:00N 34°41' E 135°12'0 0.0
2018-Jul-21 08:30N 34°41' E 135°12'0 0.0
2018-Jul-21 08:00N 34°41' E 135°12'0 0.0
2018-Jul-21 07:30N 34°41' E 135°12'0 0.0
2018-Jul-21 07:00N 34°41' E 135°12'0 0.0
2018-Jul-21 06:30N 34°41' E 135°12'0 0.0
2018-Jul-21 06:00N 34°41' E 135°12'0 0.2
2018-Jul-21 05:30N 34°41' E 135°12'0 0.0
2018-Jul-21 05:00N 34°41' E 135°12'0 0.0
2018-Jul-21 04:30N 34°41' E 135°12'1 1.9
2018-Jul-21 04:00N 34°40' E 135°11'0 0.9
2018-Jul-21 03:30N 34°41' E 135°11'0 0.1
2018-Jul-21 03:00N 34°41' E 135°11'1 1.8
2018-Jul-21 02:30N 34°41' E 135°12'0 0.0
2018-Jul-21 02:00N 34°41' E 135°12'0 0.0
2018-Jul-21 01:30N 34°41' E 135°12'0 0.0
2018-Jul-21 01:00N 34°41' E 135°12'0 0.0
2018-Jul-21 00:30N 34°41' E 135°12'0 0.0
2018-Jul-21 00:00N 34°41' E 135°12'0 0.3
2018-Jul-20 23:31N 34°41' E 135°12'4 7.6
2018-Jul-20 23:01N 34°41' E 135°17'0 0.2
2018-Jul-20 22:30N 34°41' E 135°17'1 2.6
2018-Jul-20 22:00N 34°40' E 135°18'3 5.4
2018-Jul-20 21:30N 34°41' E 135°15'2 4.0
2018-Jul-20 21:00N 34°41' E 135°12'0 0.0
2018-Jul-20 20:30N 34°41' E 135°12'0 0.0
2018-Jul-19 06:55N 34°41' E 135°12'0 0.0
2018-Jul-19 06:30N 34°41' E 135°12'0 0.0
2018-Jul-19 06:00N 34°41' E 135°12'0 0.0
2018-Jul-19 05:30N 34°41' E 135°12'0 0.0
2018-Jul-19 05:00N 34°41' E 135°12'0 0.0
2018-Jul-19 04:30N 34°41' E 135°12'0 0.0
2018-Jul-19 04:00N 34°41' E 135°12'0 0.0
2018-Jul-19 03:30N 34°41' E 135°12'0 0.0
2018-Jul-19 03:00N 34°41' E 135°12'0 0.0
2018-Jul-19 02:30N 34°41' E 135°12'0 0.0
2018-Jul-19 02:00N 34°41' E 135°12'0 0.0
2018-Jul-19 01:30N 34°41' E 135°12'0 0.0
2018-Jul-19 01:00N 34°41' E 135°12'0 0.0
2018-Jul-19 00:30N 34°41' E 135°12'2 3.2
2018-Jul-19 00:00N 34°41' E 135°14'1 2.9
2018-Jul-18 23:30N 34°41' E 135°16'1 1.3
2018-Jul-18 23:00N 34°40' E 135°15'1 1.2
2018-Jul-18 22:30N 34°40' E 135°15'1 1.5
2018-Jul-18 22:00N 34°40' E 135°14'2 3.6
2018-Jul-18 21:30N 34°41' E 135°12'0 0.0
2018-Jul-18 21:00N 34°41' E 135°12'2 0.2
2018-Jul-18 10:31N 34°41' E 135°15'1 1.7
2018-Jul-18 10:01N 34°40' E 135°15'2 3.1
2018-Jul-18 09:30N 34°40' E 135°13'0 0.0
2018-Jul-18 09:00N 34°40' E 135°13'0 0.0
2018-Jul-18 08:30N 34°40' E 135°13'0 0.0
2018-Jul-18 07:59N 34°40' E 135°13'0 0.0
2018-Jul-18 07:30N 34°40' E 135°13'1 2.9
2018-Jul-18 07:00N 34°41' E 135°15'0 0.3
2018-Jul-18 06:30N 34°41' E 135°15'2 3.9
2018-Jul-18 06:00N 34°41' E 135°12'0 0.0
2018-Jul-18 05:30N 34°41' E 135°12'0 0.0
2018-Jul-18 05:00N 34°41' E 135°12'0 0.0
2018-Jul-18 04:30N 34°41' E 135°12'0 0.1
2018-Jul-18 04:00N 34°41' E 135°12'0 0.1
2018-Jul-18 03:30N 34°41' E 135°12'0 0.1
2018-Jul-18 03:00N 34°41' E 135°12'0 0.0
2018-Jul-18 02:30N 34°41' E 135°12'0 0.1
2018-Jul-18 02:00N 34°41' E 135°12'0 0.0
2018-Jul-18 01:30N 34°41' E 135°12'1 2.3
2018-Jul-18 01:00N 34°40' E 135°11'0 0.1
2018-Jul-18 00:30N 34°40' E 135°11'0 0.0
2018-Jul-18 00:00N 34°40' E 135°11'0 0.1
2018-Jul-17 23:30N 34°40' E 135°11'0 0.3
2018-Jul-17 23:00N 34°40' E 135°11'1 1.8
2018-Jul-17 22:30N 34°41' E 135°12'0 0.0
2018-Jul-17 22:00N 34°41' E 135°12'0 0.0
2018-Jul-17 08:22N 34°41' E 135°12'2 6.7
2018-Jul-17 08:01N 34°41' E 135°15'0 0.1
2018-Jul-17 07:30N 34°41' E 135°15'0 0.9
2018-Jul-17 07:00N 34°41' E 135°15'1 1.3
2018-Jul-17 06:30N 34°41' E 135°15'0 0.4
2018-Jul-17 06:00N 34°40' E 135°15'2 3.0
2018-Jul-17 05:27N 34°41' E 135°17'0 0.0
2018-Jul-17 05:01N 34°41' E 135°17'0 0.0
2018-Jul-17 04:30N 34°41' E 135°17'0 0.0
2018-Jul-17 04:01N 34°41' E 135°17'0 0.0
2018-Jul-17 03:30N 34°41' E 135°17'0 0.0
2018-Jul-17 03:00N 34°41' E 135°17'0 0.0
2018-Jul-17 02:31N 34°41' E 135°17'0 0.0
2018-Jul-17 02:01N 34°41' E 135°17'0 0.0
2018-Jul-17 01:29N 34°41' E 135°17'0 0.0
2018-Jul-17 01:00N 34°41' E 135°17'0 0.0
2018-Jul-17 00:29N 34°41' E 135°17'1 0.8
2018-Jul-16 23:30N 34°40' E 135°16'1 2.9
2018-Jul-16 23:00N 34°39' E 135°15'1 2.4
2018-Jul-16 22:30N 34°39' E 135°16'1 1.5
2018-Jul-16 22:01N 34°39' E 135°15'3 5.6
2018-Jul-16 21:30N 34°41' E 135°12'0 0.0
2018-Jul-16 21:01N 34°41' E 135°12'0 0.0
2018-Jul-16 20:31N 34°41' E 135°12'  
2018-Jul-13 09:49N 34°41' E 135°12'1 2.2
2018-Jul-13 09:30N 34°41' E 135°13'611.9
2018-Jul-13 09:00N 34°39' E 135°20'4 7.9
2018-Jul-13 08:30N 34°38' E 135°24'0 0.6
2018-Jul-13 08:00N 34°38' E 135°25'0 0.1
2018-Jul-13 07:30N 34°38' E 135°25'1 2.2
2018-Jul-13 06:59N 34°39' E 135°25'0 0.3
2018-Jul-13 06:29N 34°39' E 135°25'2 4.2
2018-Jul-13 06:00N 34°38' E 135°23'  

Dump ship's entire track history